sensor_id;sensor_type;location;lat;lon;timestamp;P1;durP1;ratioP1;P2;durP2;ratioP2
69026;SDS011;56080;47.594;19.116;2023-01-08T00:04:00;38.90;;;16.60;;
69026;SDS011;56080;47.594;19.116;2023-01-08T00:14:00;37.00;;;16.00;;
69026;SDS011;56080;47.594;19.116;2023-01-08T00:24:01;44.20;;;20.00;;
69026;SDS011;56080;47.594;19.116;2023-01-08T00:34:01;43.10;;;18.20;;
69026;SDS011;56080;47.594;19.116;2023-01-08T00:44:02;36.50;;;16.40;;
69026;SDS011;56080;47.594;19.116;2023-01-08T00:54:02;40.00;;;17.20;;
69026;SDS011;56080;47.594;19.116;2023-01-08T01:04:03;37.10;;;15.40;;
69026;SDS011;56080;47.594;19.116;2023-01-08T01:14:05;40.20;;;17.30;;
69026;SDS011;56080;47.594;19.116;2023-01-08T01:24:05;37.40;;;16.10;;
69026;SDS011;56080;47.594;19.116;2023-01-08T01:34:05;40.60;;;18.10;;
69026;SDS011;56080;47.594;19.116;2023-01-08T01:54:06;36.60;;;14.90;;
69026;SDS011;56080;47.594;19.116;2023-01-08T02:04:08;35.40;;;16.50;;
69026;SDS011;56080;47.594;19.116;2023-01-08T02:34:09;34.80;;;15.90;;
69026;SDS011;56080;47.594;19.116;2023-01-08T02:44:10;37.80;;;17.70;;
69026;SDS011;56080;47.594;19.116;2023-01-08T02:54:19;30.80;;;15.90;;
69026;SDS011;56080;47.594;19.116;2023-01-08T03:04:16;31.30;;;15.60;;
69026;SDS011;56080;47.594;19.116;2023-01-08T03:24:13;26.40;;;13.70;;
69026;SDS011;56080;47.594;19.116;2023-01-08T03:34:13;26.20;;;13.30;;
69026;SDS011;56080;47.594;19.116;2023-01-08T03:44:12;27.50;;;14.90;;
69026;SDS011;56080;47.594;19.116;2023-01-08T03:54:14;29.60;;;15.10;;
69026;SDS011;56080;47.594;19.116;2023-01-08T04:04:14;26.60;;;14.30;;
69026;SDS011;56080;47.594;19.116;2023-01-08T04:14:14;27.20;;;13.50;;
69026;SDS011;56080;47.594;19.116;2023-01-08T04:24:15;23.80;;;12.80;;
69026;SDS011;56080;47.594;19.116;2023-01-08T04:34:15;28.60;;;13.90;;
69026;SDS011;56080;47.594;19.116;2023-01-08T04:44:16;29.10;;;14.50;;
69026;SDS011;56080;47.594;19.116;2023-01-08T04:54:16;28.90;;;13.90;;
69026;SDS011;56080;47.594;19.116;2023-01-08T05:04:16;26.70;;;13.50;;
69026;SDS011;56080;47.594;19.116;2023-01-08T05:14:17;31.90;;;15.50;;
69026;SDS011;56080;47.594;19.116;2023-01-08T05:24:18;31.60;;;16.10;;
69026;SDS011;56080;47.594;19.116;2023-01-08T05:34:18;29.40;;;15.50;;
69026;SDS011;56080;47.594;19.116;2023-01-08T05:44:19;32.20;;;16.40;;
69026;SDS011;56080;47.594;19.116;2023-01-08T05:54:19;29.70;;;14.50;;
69026;SDS011;56080;47.594;19.116;2023-01-08T06:04:20;29.30;;;14.20;;
69026;SDS011;56080;47.594;19.116;2023-01-08T06:14:20;26.20;;;14.00;;
69026;SDS011;56080;47.594;19.116;2023-01-08T06:24:20;27.30;;;14.40;;
69026;SDS011;56080;47.594;19.116;2023-01-08T06:34:21;30.30;;;14.80;;
69026;SDS011;56080;47.594;19.116;2023-01-08T06:44:22;30.80;;;14.70;;
69026;SDS011;56080;47.594;19.116;2023-01-08T06:54:24;29.60;;;15.50;;
69026;SDS011;56080;47.594;19.116;2023-01-08T07:04:22;26.90;;;15.00;;
69026;SDS011;56080;47.594;19.116;2023-01-08T07:14:23;29.50;;;14.80;;
69026;SDS011;56080;47.594;19.116;2023-01-08T07:24:23;29.40;;;15.30;;
69026;SDS011;56080;47.594;19.116;2023-01-08T07:34:25;31.90;;;16.40;;
69026;SDS011;56080;47.594;19.116;2023-01-08T07:44:24;29.40;;;15.30;;
69026;SDS011;56080;47.594;19.116;2023-01-08T07:54:25;29.10;;;15.70;;
69026;SDS011;56080;47.594;19.116;2023-01-08T08:04:26;29.20;;;15.00;;
69026;SDS011;56080;47.594;19.116;2023-01-08T08:14:27;28.60;;;15.60;;
69026;SDS011;56080;47.594;19.116;2023-01-08T08:24:26;28.50;;;14.60;;
69026;SDS011;56080;47.594;19.116;2023-01-08T08:34:27;30.10;;;15.80;;
69026;SDS011;56080;47.594;19.116;2023-01-08T08:44:27;30.70;;;16.10;;
69026;SDS011;56080;47.594;19.116;2023-01-08T09:04:30;31.90;;;16.60;;
69026;SDS011;56080;47.594;19.116;2023-01-08T09:14:29;30.10;;;16.00;;
69026;SDS011;56080;47.594;19.116;2023-01-08T09:24:29;28.00;;;15.80;;
69026;SDS011;56080;47.594;19.116;2023-01-08T09:34:30;27.70;;;15.40;;
69026;SDS011;56080;47.594;19.116;2023-01-08T09:44:35;29.60;;;15.30;;
69026;SDS011;56080;47.594;19.116;2023-01-08T09:54:33;28.20;;;15.90;;
69026;SDS011;56080;47.594;19.116;2023-01-08T10:04:32;26.30;;;14.10;;
69026;SDS011;56080;47.594;19.116;2023-01-08T10:14:35;26.80;;;15.60;;
69026;SDS011;56080;47.594;19.116;2023-01-08T10:24:41;26.10;;;14.50;;
69026;SDS011;56080;47.594;19.116;2023-01-08T10:34:54;27.00;;;16.80;;
69026;SDS011;56080;47.594;19.116;2023-01-08T10:44:34;27.70;;;16.20;;
69026;SDS011;56080;47.594;19.116;2023-01-08T10:54:38;25.90;;;15.60;;
69026;SDS011;56080;47.594;19.116;2023-01-08T11:04:43;29.10;;;16.60;;
69026;SDS011;56080;47.594;19.116;2023-01-08T11:14:39;28.30;;;17.00;;
69026;SDS011;56080;47.594;19.116;2023-01-08T11:24:44;26.90;;;16.20;;
69026;SDS011;56080;47.594;19.116;2023-01-08T11:54:45;25.30;;;16.40;;
69026;SDS011;56080;47.594;19.116;2023-01-08T12:04:48;26.10;;;18.00;;
69026;SDS011;56080;47.594;19.116;2023-01-08T12:35:07;24.70;;;16.00;;
69026;SDS011;56080;47.594;19.116;2023-01-08T12:44:41;22.10;;;14.20;;
69026;SDS011;56080;47.594;19.116;2023-01-08T13:04:51;20.90;;;13.30;;
69026;SDS011;56080;47.594;19.116;2023-01-08T13:14:49;28.50;;;18.10;;
69026;SDS011;56080;47.594;19.116;2023-01-08T13:24:46;28.40;;;18.70;;
69026;SDS011;56080;47.594;19.116;2023-01-08T13:34:48;29.70;;;18.90;;
69026;SDS011;56080;47.594;19.116;2023-01-08T13:44:51;31.80;;;20.50;;
69026;SDS011;56080;47.594;19.116;2023-01-08T13:54:47;33.20;;;21.90;;
69026;SDS011;56080;47.594;19.116;2023-01-08T14:04:48;30.70;;;20.70;;
69026;SDS011;56080;47.594;19.116;2023-01-08T14:14:51;33.80;;;20.40;;
69026;SDS011;56080;47.594;19.116;2023-01-08T14:24:51;33.70;;;21.70;;
69026;SDS011;56080;47.594;19.116;2023-01-08T14:34:50;36.30;;;22.70;;
69026;SDS011;56080;47.594;19.116;2023-01-08T14:44:58;36.60;;;23.50;;
69026;SDS011;56080;47.594;19.116;2023-01-08T14:54:48;37.50;;;24.20;;
69026;SDS011;56080;47.594;19.116;2023-01-08T15:04:58;41.90;;;25.50;;
69026;SDS011;56080;47.594;19.116;2023-01-08T15:14:50;36.80;;;22.90;;
69026;SDS011;56080;47.594;19.116;2023-01-08T15:24:53;40.90;;;24.30;;
69026;SDS011;56080;47.594;19.116;2023-01-08T15:34:51;39.50;;;24.50;;
69026;SDS011;56080;47.594;19.116;2023-01-08T15:44:50;33.50;;;21.50;;
69026;SDS011;56080;47.594;19.116;2023-01-08T15:54:51;38.10;;;24.00;;
69026;SDS011;56080;47.594;19.116;2023-01-08T16:04:53;34.20;;;21.50;;
69026;SDS011;56080;47.594;19.116;2023-01-08T16:14:54;32.30;;;20.40;;
69026;SDS011;56080;47.594;19.116;2023-01-08T16:24:54;33.00;;;20.30;;
69026;SDS011;56080;47.594;19.116;2023-01-08T16:34:52;33.90;;;21.40;;
69026;SDS011;56080;47.594;19.116;2023-01-08T16:44:53;36.20;;;22.80;;
69026;SDS011;56080;47.594;19.116;2023-01-08T16:54:56;36.90;;;23.40;;
69026;SDS011;56080;47.594;19.116;2023-01-08T17:05:05;34.60;;;20.80;;
69026;SDS011;56080;47.594;19.116;2023-01-08T17:14:55;31.60;;;20.10;;
69026;SDS011;56080;47.594;19.116;2023-01-08T17:24:56;35.40;;;22.40;;
69026;SDS011;56080;47.594;19.116;2023-01-08T17:35:05;32.30;;;20.80;;
69026;SDS011;56080;47.594;19.116;2023-01-08T17:44:57;32.20;;;20.00;;
69026;SDS011;56080;47.594;19.116;2023-01-08T17:54:58;35.70;;;22.60;;
69026;SDS011;56080;47.594;19.116;2023-01-08T18:04:58;35.00;;;22.40;;
69026;SDS011;56080;47.594;19.116;2023-01-08T18:14:58;31.20;;;20.80;;
69026;SDS011;56080;47.594;19.116;2023-01-08T18:25:02;34.10;;;22.20;;
69026;SDS011;56080;47.594;19.116;2023-01-08T18:35:02;32.20;;;21.20;;
69026;SDS011;56080;47.594;19.116;2023-01-08T18:45:04;33.50;;;21.40;;
69026;SDS011;56080;47.594;19.116;2023-01-08T18:55:05;35.50;;;22.40;;
69026;SDS011;56080;47.594;19.116;2023-01-08T19:05:04;35.40;;;22.20;;
69026;SDS011;56080;47.594;19.116;2023-01-08T19:15:02;29.60;;;18.80;;
69026;SDS011;56080;47.594;19.116;2023-01-08T19:25:04;35.20;;;22.10;;
69026;SDS011;56080;47.594;19.116;2023-01-08T19:45:03;31.90;;;20.60;;
69026;SDS011;56080;47.594;19.116;2023-01-08T19:55:06;36.30;;;21.80;;
69026;SDS011;56080;47.594;19.116;2023-01-08T20:05:08;35.00;;;22.90;;
69026;SDS011;56080;47.594;19.116;2023-01-08T20:15:07;36.30;;;23.60;;
69026;SDS011;56080;47.594;19.116;2023-01-08T20:25:09;34.70;;;21.80;;
69026;SDS011;56080;47.594;19.116;2023-01-08T20:35:06;37.20;;;22.80;;
69026;SDS011;56080;47.594;19.116;2023-01-08T20:45:06;35.70;;;23.60;;
69026;SDS011;56080;47.594;19.116;2023-01-08T20:55:09;35.50;;;23.00;;
69026;SDS011;56080;47.594;19.116;2023-01-08T21:05:10;32.60;;;20.80;;
69026;SDS011;56080;47.594;19.116;2023-01-08T21:15:12;30.20;;;20.10;;
69026;SDS011;56080;47.594;19.116;2023-01-08T21:25:09;27.40;;;17.10;;
69026;SDS011;56080;47.594;19.116;2023-01-08T21:35:09;20.90;;;13.90;;
69026;SDS011;56080;47.594;19.116;2023-01-08T21:45:19;19.50;;;12.40;;
69026;SDS011;56080;47.594;19.116;2023-01-08T21:55:10;20.40;;;12.10;;
69026;SDS011;56080;47.594;19.116;2023-01-08T22:05:11;19.80;;;12.40;;
69026;SDS011;56080;47.594;19.116;2023-01-08T22:15:11;20.80;;;13.10;;
69026;SDS011;56080;47.594;19.116;2023-01-08T22:25:12;20.50;;;12.40;;
69026;SDS011;56080;47.594;19.116;2023-01-08T22:35:14;21.40;;;13.10;;
69026;SDS011;56080;47.594;19.116;2023-01-08T22:45:13;19.50;;;12.20;;
69026;SDS011;56080;47.594;19.116;2023-01-08T22:55:15;22.80;;;14.30;;
69026;SDS011;56080;47.594;19.116;2023-01-08T23:05:15;20.20;;;12.70;;
69026;SDS011;56080;47.594;19.116;2023-01-08T23:15:17;19.20;;;12.40;;
69026;SDS011;56080;47.594;19.116;2023-01-08T23:25:16;22.50;;;12.90;;
69026;SDS011;56080;47.594;19.116;2023-01-08T23:35:16;20.50;;;12.60;;
69026;SDS011;56080;47.594;19.116;2023-01-08T23:45:17;18.60;;;12.00;;
69026;SDS011;56080;47.594;19.116;2023-01-08T23:55:18;18.90;;;11.50;;
